Time;durP1;ratioP1;P1;durP2;ratioP2;P2;SDS_P1;SDS_P2;PMS_P1;PMS_P2;Temp;Humidity;BMP_temperature;BMP_pressure;BME280_temperature;BME280_humidity;BME280_pressure;Samples;Min_cycle;Max_cycle;Signal;HPM_P1;HPM_P2
2022/06/17 00:01:38;;;;;;;5.88;1.90;;;19.40;77.40;;;;;;5026590;28;20240;-92
2022/06/17 00:04:04;;;;;;;10.25;2.15;;;19.40;77.10;;;;;;5051234;28;20033;-94
2022/06/17 00:06:36;;;;;;;3.47;1.98;;;19.30;77.20;;;;;;5008396;28;20022;-94
2022/06/17 00:09:04;;;;;;;5.32;2.10;;;19.20;77.80;;;;;;5015908;28;20030;-93
2022/06/17 00:11:35;;;;;;;4.18;1.65;;;19.10;78.60;;;;;;5016914;28;20036;-92
2022/06/17 00:14:03;;;;;;;3.70;2.10;;;19.20;79.10;;;;;;5019187;28;20069;-91
2022/06/17 00:16:30;;;;;;;3.72;2.35;;;19.10;79.20;;;;;;5024356;28;20022;-94
2022/06/17 00:18:56;;;;;;;1.88;1.52;;;19.10;79.60;;;;;;5019100;28;20038;-91
2022/06/17 00:21:25;;;;;;;5.75;2.20;;;19.10;79.70;;;;;;5022719;28;20022;-95
2022/06/17 00:23:52;;;;;;;3.20;1.80;;;19.10;79.80;;;;;;5020854;28;20026;-92
2022/06/17 00:26:18;;;;;;;3.72;1.77;;;19.10;79.70;;;;;;5023555;28;20459;-93
2022/06/17 00:28:44;;;;;;;3.90;1.98;;;19.10;79.90;;;;;;5012486;28;20026;-94
2022/06/17 00:31:09;;;;;;;3.63;1.77;;;19.00;80.10;;;;;;5022729;28;20021;-92
2022/06/17 00:33:35;;;;;;;5.53;2.70;;;19.00;80.20;;;;;;5018407;28;20057;-94
2022/06/17 00:36:02;;;;;;;4.25;2.22;;;19.00;80.60;;;;;;5016919;28;20045;-94
2022/06/17 00:38:31;;;;;;;3.92;2.10;;;18.80;81.10;;;;;;5017478;28;20017;-94
2022/06/17 00:41:06;;;;;;;2.22;1.70;;;18.80;81.80;;;;;;5016398;28;20408;-94
2022/06/17 00:43:35;;;;;;;3.30;1.65;;;18.70;82.30;;;;;;5024340;28;20098;-92
2022/06/17 00:46:24;;;;;;;2.80;1.65;;;18.70;82.60;;;;;;5022584;28;20041;-94
2022/06/17 00:49:00;;;;;;;7.57;1.83;;;18.60;82.80;;;;;;5020264;28;20041;-93
2022/06/17 00:51:32;;;;;;;5.90;2.33;;;18.50;82.90;;;;;;5026132;28;20431;-94
2022/06/17 00:54:07;;;;;;;6.03;2.40;;;18.50;83.20;;;;;;5023963;28;20081;-92
2022/06/17 00:56:35;;;;;;;2.90;2.00;;;18.40;83.80;;;;;;5029857;28;20030;-94
2022/06/17 00:59:10;;;;;;;3.95;1.55;;;18.40;84.40;;;;;;5032444;28;20026;-91
2022/06/17 01:01:46;;;;;;;4.63;1.65;;;18.40;84.70;;;;;;5027320;28;20026;-93
2022/06/17 01:04:18;;;;;;;5.40;1.80;;;18.30;84.60;;;;;;5023126;28;20021;-95
2022/06/17 01:06:49;;;;;;;5.95;1.70;;;18.30;84.70;;;;;;5024574;28;20128;-94
2022/06/17 01:12:09;;;;;;;5.25;1.45;;;18.30;85.10;;;;;;5021512;28;20068;-93
2022/06/17 01:14:35;;;;;;;3.08;1.15;;;18.20;85.00;;;;;;5021583;28;20094;-94
2022/06/17 01:17:02;;;;;;;3.97;1.33;;;18.20;85.10;;;;;;5018060;28;20022;-94
2022/06/17 01:19:54;;;;;;;3.88;1.30;;;18.20;85.00;;;;;;5018577;28;20023;-94
2022/06/17 01:22:26;;;;;;;5.70;1.42;;;18.20;84.70;;;;;;5015196;28;20030;-93
2022/06/17 01:24:58;;;;;;;6.07;2.20;;;18.20;84.60;;;;;;5019662;28;20606;-92
2022/06/17 01:27:28;;;;;;;2.63;2.03;;;18.10;85.00;;;;;;5032556;28;20022;-93
2022/06/17 01:29:54;;;;;;;2.67;2.10;;;18.00;86.30;;;;;;5027716;28;20030;-92
2022/06/17 01:32:24;;;;;;;4.47;2.08;;;17.90;87.40;;;;;;5028942;28;20022;-93
2022/06/17 01:34:51;;;;;;;7.05;2.75;;;17.80;88.30;;;;;;5033045;28;20456;-93
2022/06/17 01:37:17;;;;;;;6.30;1.90;;;17.70;89.10;;;;;;5036138;28;20029;-88
2022/06/17 01:39:43;;;;;;;6.65;2.05;;;17.60;89.80;;;;;;5035630;28;20065;-91
2022/06/17 01:42:10;;;;;;;5.97;2.17;;;17.50;90.20;;;;;;5037747;28;20037;-90
2022/06/17 01:44:39;;;;;;;3.08;2.05;;;17.50;90.50;;;;;;5035337;28;20518;-93
2022/06/17 01:47:19;;;;;;;3.17;1.90;;;17.50;90.80;;;;;;5035432;28;20041;-92
2022/06/17 01:49:50;;;;;;;2.85;2.03;;;17.40;91.10;;;;;;5040212;28;20014;-90
2022/06/17 01:52:25;;;;;;;5.20;1.98;;;17.40;91.30;;;;;;5040213;28;20041;-87
2022/06/17 01:55:05;;;;;;;7.90;2.30;;;17.40;91.20;;;;;;5040012;28;20076;-90
2022/06/17 01:58:03;;;;;;;3.92;1.90;;;17.40;91.30;;;;;;5039643;28;20050;-93
2022/06/17 02:00:29;;;;;;;3.85;1.80;;;17.40;91.50;;;;;;5034695;28;20034;-94
2022/06/17 02:03:10;;;;;;;2.85;2.20;;;17.40;91.50;;;;;;5033954;28;20037;-93
2022/06/17 02:05:37;;;;;;;4.30;1.80;;;17.30;91.80;;;;;;5039086;28;20037;-88
2022/06/17 02:08:04;;;;;;;4.72;2.00;;;17.30;92.10;;;;;;5039456;28;20057;-89
2022/06/17 02:10:37;;;;;;;4.47;1.70;;;17.30;92.20;;;;;;5039520;28;20018;-88
2022/06/17 02:13:04;;;;;;;3.70;2.05;;;17.30;92.40;;;;;;5035424;28;20092;-92
2022/06/17 02:15:30;;;;;;;4.22;1.52;;;17.30;92.50;;;;;;5034198;28;20010;-88
2022/06/17 02:17:57;;;;;;;2.92;1.48;;;17.20;92.60;;;;;;5038437;28;20057;-92
2022/06/17 02:20:24;;;;;;;2.58;1.60;;;17.20;92.70;;;;;;5034946;28;20037;-93
2022/06/17 02:22:50;;;;;;;2.72;1.58;;;17.20;92.80;;;;;;5022943;28;20206;-90
2022/06/17 02:25:22;;;;;;;2.22;1.52;;;17.20;92.80;;;;;;5022498;28;20070;-92
2022/06/17 02:27:53;;;;;;;2.97;1.73;;;17.20;92.60;;;;;;5023804;28;20495;-94
2022/06/17 02:30:19;;;;;;;4.43;1.40;;;17.20;92.70;;;;;;5022220;28;20040;-94
2022/06/17 02:32:46;;;;;;;3.08;1.45;;;17.20;92.50;;;;;;5020316;28;20117;-94
2022/06/17 02:35:18;;;;;;;5.03;1.60;;;17.20;92.40;;;;;;5025833;28;20040;-91
2022/06/17 02:37:45;;;;;;;2.88;1.52;;;17.20;92.40;;;;;;5026181;28;20041;-93
2022/06/17 02:40:35;;;;;;;3.90;1.48;;;17.20;92.50;;;;;;5028574;28;20037;-94
2022/06/17 02:43:05;;;;;;;5.30;1.45;;;17.20;92.60;;;;;;5025918;28;20044;-93
2022/06/17 02:45:35;;;;;;;4.90;2.40;;;17.10;92.60;;;;;;5028471;28;20491;-92
2022/06/17 02:48:04;;;;;;;3.97;1.55;;;17.10;92.70;;;;;;5022265;28;20034;-93
2022/06/17 02:50:31;;;;;;;5.03;2.50;;;17.00;93.10;;;;;;5030344;28;20029;-94
2022/06/17 02:53:00;;;;;;;4.25;2.45;;;17.00;93.40;;;;;;5035826;28;20075;-93
2022/06/17 02:55:39;;;;;;;3.65;2.22;;;17.00;94.00;;;;;;5035840;28;20025;-93
2022/06/17 02:58:23;;;;;;;4.13;2.20;;;16.90;94.50;;;;;;5054697;28;20069;-89
2022/06/17 03:00:51;;;;;;;5.70;2.22;;;16.90;95.00;;;;;;5042225;28;20032;-94
2022/06/17 03:03:19;;;;;;;3.40;2.35;;;16.80;95.20;;;;;;5031524;28;20061;-92
2022/06/17 03:05:46;;;;;;;7.18;2.25;;;16.80;95.60;;;;;;5032205;28;20212;-91
2022/06/17 03:13:30;;;;;;;3.40;2.20;;;16.70;96.90;;;;;;5079766;23;20061;-92
2022/06/17 03:15:59;;;;;;;7.97;2.35;;;16.70;97.30;;;;;;5077703;28;20009;-93
2022/06/17 03:18:25;;;;;;;2.80;2.13;;;16.70;97.70;;;;;;5060616;28;20029;-93
2022/06/17 03:20:51;;;;;;;7.75;2.13;;;16.70;97.90;;;;;;5060838;28;20017;-89
2022/06/17 03:23:33;;;;;;;2.97;2.15;;;16.70;98.20;;;;;;5061208;28;20021;-89
2022/06/17 03:26:05;;;;;;;3.47;2.08;;;16.70;98.50;;;;;;5077802;28;20017;-91
2022/06/17 03:28:38;;;;;;;5.43;2.53;;;16.70;98.70;;;;;;5059938;28;20029;-93
2022/06/17 03:31:08;;;;;;;3.28;2.40;;;16.70;99.00;;;;;;5060081;28;20025;-94
2022/06/17 03:33:57;;;;;;;5.40;2.40;;;16.60;99.30;;;;;;5061153;28;20032;-91
2022/06/17 03:36:34;;;;;;;3.78;2.45;;;16.60;99.60;;;;;;5060403;28;20033;-93
2022/06/17 03:39:04;;;;;;;3.90;2.35;;;16.60;99.90;;;;;;5060363;28;20119;-89
2022/06/17 03:41:44;;;;;;;2.70;2.00;;;16.50;99.90;;;;;;5058510;28;20036;-92
2022/06/17 03:44:14;;;;;;;5.80;2.15;;;16.50;99.90;;;;;;5060437;28;20021;-91
2022/06/17 03:46:52;;;;;;;5.22;2.38;;;16.50;99.90;;;;;;5052845;28;20033;-94
2022/06/17 03:49:23;;;;;;;3.28;2.20;;;16.50;99.90;;;;;;5074930;28;20021;-96
2022/06/17 03:51:50;;;;;;;;;;;16.50;99.90;;;;;;5057948;28;20055;-93
2022/06/17 03:54:16;;;;;;;4.15;2.08;;;16.50;99.90;;;;;;5055713;28;19921;-90
2022/06/17 03:56:47;;;;;;;2.40;1.90;;;16.50;99.90;;;;;;5077903;28;20077;-89
2022/06/17 03:59:24;;;;;;;4.30;2.00;;;16.50;99.90;;;;;;5069179;28;20028;-95
2022/06/17 04:01:58;;;;;;;5.30;1.92;;;16.50;99.90;;;;;;5046172;28;20064;-95
2022/06/17 04:04:28;;;;;;;3.92;1.75;;;16.50;99.90;;;;;;5046606;28;20021;-92
2022/06/17 04:06:56;;;;;;;3.72;2.03;;;16.50;99.90;;;;;;5071083;28;20029;-93
2022/06/17 04:09:28;;;;;;;2.22;1.77;;;16.50;99.90;;;;;;5073509;28;20021;-93
2022/06/17 04:12:03;;;;;;;3.42;1.90;;;16.50;99.90;;;;;;5044679;28;20052;-91
2022/06/17 04:14:46;;;;;;;2.70;1.80;;;16.50;99.90;;;;;;5044212;28;20148;-94
2022/06/17 04:17:30;;;;;;;3.00;2.03;;;16.50;99.90;;;;;;5041325;28;20025;-94
2022/06/17 04:20:28;;;;;;;2.38;1.67;;;16.40;99.90;;;;;;5051220;28;20049;-93
2022/06/17 04:23:15;;;;;;;3.80;1.65;;;16.40;99.90;;;;;;5010885;28;20025;-94
2022/06/17 04:25:57;;;;;;;3.00;1.67;;;16.40;99.90;;;;;;5047057;28;20052;-94
2022/06/17 04:28:27;;;;;;;2.88;1.58;;;16.50;99.90;;;;;;5049900;28;20048;-93
2022/06/17 04:31:00;;;;;;;5.38;1.73;;;16.50;99.90;;;;;;5051230;28;20035;-94
2022/06/17 04:33:37;;;;;;;3.95;1.90;;;16.50;99.90;;;;;;5053979;28;20049;-93
2022/06/17 04:36:10;;;;;;;2.20;1.65;;;16.50;99.90;;;;;;5049944;28;20136;-93
2022/06/17 04:38:57;;;;;;;4.28;2.25;;;16.50;99.90;;;;;;5049484;28;20105;-93
2022/06/17 04:41:29;;;;;;;6.63;2.15;;;16.40;99.90;;;;;;5049784;28;20473;-94
2022/06/17 04:43:57;;;;;;;3.17;2.33;;;16.40;99.90;;;;;;5055494;28;20058;-90
2022/06/17 04:46:37;;;;;;;4.45;2.47;;;16.40;99.90;;;;;;5051591;28;20029;-92
2022/06/17 04:49:05;;;;;;;4.78;3.53;;;16.30;99.90;;;;;;5052315;28;20100;-89
2022/06/17 04:51:33;;;;;;;4.65;2.75;;;16.30;99.90;;;;;;5051975;28;20026;-90
2022/06/17 04:53:59;;;;;;;8.15;3.10;;;16.20;99.90;;;;;;5053134;28;20055;-95
2022/06/17 04:56:32;;;;;;;6.20;3.17;;;16.20;99.90;;;;;;5050667;28;20030;-92
2022/06/17 04:58:58;;;;;;;4.80;3.10;;;16.20;99.90;;;;;;5054119;28;20037;-94
2022/06/17 05:01:26;;;;;;;5.53;3.20;;;16.20;99.90;;;;;;5047681;28;20085;-95
2022/06/17 05:03:59;;;;;;;4.07;2.28;;;16.10;99.90;;;;;;5045664;28;20026;-93
2022/06/17 05:06:24;;;;;;;4.70;2.72;;;16.10;99.90;;;;;;5053201;28;20021;-95
2022/06/17 05:09:03;;;;;;;6.30;2.95;;;16.10;99.90;;;;;;5055024;28;20024;-93
2022/06/17 05:11:34;;;;;;;6.80;2.25;;;16.20;99.90;;;;;;5052236;28;20030;-93
2022/06/17 05:14:32;;;;;;;4.80;2.83;;;16.20;99.90;;;;;;5055674;28;20044;-93
2022/06/17 05:16:58;;;;;;;5.65;1.95;;;16.20;99.90;;;;;;5078030;28;20051;-89
2022/06/17 05:19:23;;;;;;;5.50;1.90;;;16.30;99.90;;;;;;5078170;28;20012;-90
2022/06/17 05:21:49;;;;;;;7.07;2.50;;;16.20;99.90;;;;;;5060318;28;20147;-95
2022/06/17 05:24:15;;;;;;;4.57;1.80;;;16.30;99.90;;;;;;5058807;28;20021;-93
2022/06/17 05:26:41;;;;;;;3.83;2.10;;;16.20;99.90;;;;;;5051695;28;20029;-90
2022/06/17 05:29:09;;;;;;;3.95;2.10;;;16.20;99.90;;;;;;5057344;28;20036;-93
2022/06/17 05:31:35;;;;;;;3.45;1.88;;;16.20;99.90;;;;;;5051574;28;20170;-92
2022/06/17 05:34:04;;;;;;;2.85;2.00;;;16.20;99.90;;;;;;5049929;28;20136;-96
2022/06/17 05:36:30;;;;;;;2.45;1.85;;;16.20;99.90;;;;;;5052595;28;20021;-93
2022/06/17 05:38:56;;;;;;;3.05;1.90;;;16.20;99.90;;;;;;5070382;28;20510;-93
2022/06/17 05:41:24;;;;;;;3.22;1.77;;;16.30;99.90;;;;;;5066499;28;20085;-96
2022/06/17 05:43:51;;;;;;;6.38;2.30;;;16.30;99.90;;;;;;5048483;28;20512;-94
2022/06/17 05:46:17;;;;;;;7.43;2.78;;;16.20;99.90;;;;;;5031152;28;20040;-95
2022/06/17 05:48:43;;;;;;;4.78;2.10;;;16.20;99.90;;;;;;5034348;28;20116;-95
2022/06/17 05:51:12;;;;;;;4.07;1.92;;;16.20;99.90;;;;;;5035490;28;20060;-94
2022/06/17 05:53:38;;;;;;;4.65;2.10;;;16.30;99.90;;;;;;5037239;28;20102;-89
2022/06/17 05:56:04;;;;;;;3.67;1.73;;;16.30;99.90;;;;;;5052233;28;20539;-94
2022/06/17 05:58:29;;;;;;;4.90;2.17;;;16.40;99.90;;;;;;5037301;28;20017;-90
2022/06/17 06:00:57;;;;;;;6.60;2.88;;;16.50;99.90;;;;;;5032944;28;20052;-95
2022/06/17 06:03:26;;;;;;;3.47;1.92;;;16.50;99.90;;;;;;5032982;28;20506;-95
2022/06/17 06:05:52;;;;;;;8.10;2.25;;;16.60;99.90;;;;;;5053261;28;20161;-92
2022/06/17 06:08:18;;;;;;;5.05;2.00;;;16.70;99.90;;;;;;5035358;28;20038;-96
2022/06/17 06:10:44;;;;;;;3.70;2.35;;;16.80;99.90;;;;;;5039990;28;20010;-88
2022/06/17 06:13:18;;;;;;;6.72;1.90;;;16.90;99.90;;;;;;5037424;28;20041;-89
2022/06/17 06:15:50;;;;;;;4.03;2.25;;;17.10;99.90;;;;;;5059721;28;20032;-89
2022/06/17 06:18:27;;;;;;;8.80;2.03;;;17.20;99.90;;;;;;5058711;28;20009;-93
2022/06/17 06:20:53;;;;;;;2.63;1.70;;;17.30;99.90;;;;;;5057939;28;20030;-92
2022/06/17 06:23:19;;;;;;;6.22;2.42;;;17.40;99.90;;;;;;5043173;28;20041;-94
2022/06/17 06:25:44;;;;;;;2.08;1.83;;;17.50;99.90;;;;;;5028994;28;20052;-93
2022/06/17 06:28:22;;;;;;;3.00;1.58;;;17.60;99.90;;;;;;5023600;28;20021;-93
2022/06/17 06:31:14;;;;;;;4.20;1.90;;;17.70;99.90;;;;;;5047149;28;20049;-92
2022/06/17 06:33:41;;;;;;;6.22;1.65;;;17.80;99.40;;;;;;5021368;28;20034;-94
2022/06/17 06:36:07;;;;;;;6.57;2.10;;;18.00;97.00;;;;;;5033048;28;20026;-94
2022/06/17 06:38:33;;;;;;;2.45;1.63;;;18.10;95.40;;;;;;5018979;28;20467;-93
2022/06/17 06:40:59;;;;;;;10.65;1.77;;;18.20;94.00;;;;;;5021114;28;20018;-95
2022/06/17 06:43:25;;;;;;;7.07;2.13;;;18.30;92.70;;;;;;5023851;28;20025;-94
2022/06/17 06:45:52;;;;;;;5.30;2.22;;;18.40;91.20;;;;;;5033057;28;20005;-95
2022/06/17 06:48:21;;;;;;;5.60;1.85;;;18.40;90.60;;;;;;5056696;28;20018;-94
2022/06/17 06:50:48;;;;;;;5.32;1.80;;;18.50;89.50;;;;;;5050431;28;20521;-95
2022/06/17 06:53:14;;;;;;;5.47;1.85;;;18.60;88.00;;;;;;5047336;28;20535;-93
2022/06/17 06:55:40;;;;;;;4.10;1.67;;;18.60;86.10;;;;;;5050189;28;20053;-92
2022/06/17 06:58:14;;;;;;;4.97;1.63;;;18.70;84.70;;;;;;5024226;28;20025;-93
2022/06/17 07:00:43;;;;;;;3.83;1.48;;;18.70;83.60;;;;;;5050260;28;20037;-89
2022/06/17 07:03:09;;;;;;;7.05;1.85;;;18.70;82.60;;;;;;5033196;28;20029;-93
2022/06/17 07:05:39;;;;;;;2.75;1.38;;;18.80;81.80;;;;;;5053430;28;20056;-89
2022/06/17 07:08:06;;;;;;;4.00;1.58;;;18.80;81.00;;;;;;5025396;28;20025;-95
2022/06/17 07:10:34;;;;;;;3.38;1.55;;;18.80;80.70;;;;;;5024684;28;20029;-95
2022/06/17 07:13:00;;;;;;;5.30;1.52;;;18.80;79.70;;;;;;5029135;28;20053;-94
2022/06/17 07:15:28;;;;;;;3.70;1.58;;;18.90;79.30;;;;;;5049973;28;20013;-94
2022/06/17 07:18:12;;;;;;;4.05;1.60;;;18.90;79.50;;;;;;5044967;28;20323;-92
2022/06/17 07:20:43;;;;;;;4.13;1.58;;;18.90;79.30;;;;;;5034143;28;20021;-88
2022/06/17 07:23:10;;;;;;;;;;;18.90;79.20;;;;;;5040580;28;20073;-88
2022/06/17 07:25:36;;;;;;;4.63;1.63;;;19.00;79.30;;;;;;5050975;28;19968;-93
2022/06/17 07:28:03;;;;;;;2.78;1.65;;;19.00;79.30;;;;;;5035907;28;20021;-86
2022/06/17 07:30:30;;;;;;;7.78;1.58;;;19.10;79.00;;;;;;5035532;28;20006;-87
2022/06/17 07:32:56;;;;;;;3.63;1.30;;;19.10;79.30;;;;;;5031568;28;20021;-87
2022/06/17 07:35:22;;;;;;;2.70;1.33;;;19.10;79.20;;;;;;5039665;28;20032;-87
2022/06/17 07:40:34;;;;;;;3.45;1.80;;;19.10;78.20;;;;;;5053098;28;20064;-89
2022/06/17 07:43:00;;;;;;;2.55;1.55;;;19.20;78.40;;;;;;5058326;28;20024;-89
2022/06/17 07:45:29;;;;;;;4.05;1.88;;;19.20;78.50;;;;;;5041427;28;20017;-87
2022/06/17 07:47:55;;;;;;;3.90;1.50;;;19.20;78.50;;;;;;5040901;28;20048;-86
2022/06/17 07:50:29;;;;;;;4.55;1.65;;;19.30;78.60;;;;;;5040181;28;20013;-88
2022/06/17 07:52:55;;;;;;;2.05;1.15;;;19.30;78.10;;;;;;5053989;28;20075;-86
2022/06/17 07:55:22;;;;;;;5.63;1.40;;;19.30;77.70;;;;;;5050097;28;20026;-91
2022/06/17 07:57:48;;;;;;;4.47;1.83;;;19.40;77.80;;;;;;5036114;28;20030;-87
2022/06/17 08:00:21;;;;;;;3.25;1.60;;;19.40;77.60;;;;;;5033721;28;20036;-89
2022/06/17 08:02:47;;;;;;;4.05;1.50;;;19.50;77.30;;;;;;5036718;28;20021;-91
2022/06/17 08:05:13;;;;;;;3.20;1.50;;;19.70;77.40;;;;;;5053383;28;20017;-87
2022/06/17 08:07:39;;;;;;;5.07;1.77;;;19.80;77.10;;;;;;5050615;28;20029;-88
2022/06/17 08:10:06;;;;;;;4.30;1.45;;;19.90;76.80;;;;;;5034761;28;20041;-88
2022/06/17 08:12:32;;;;;;;5.13;1.88;;;20.00;76.30;;;;;;5031186;28;20072;-89
2022/06/17 08:14:58;;;;;;;16.48;2.05;;;20.10;75.90;;;;;;5033907;28;20025;-89
2022/06/17 08:17:24;;;;;;;3.22;1.40;;;20.10;75.70;;;;;;5049976;28;20026;-89
2022/06/17 08:19:55;;;;;;;2.92;1.48;;;20.20;75.30;;;;;;5032890;28;20014;-88
2022/06/17 08:22:22;;;;;;;5.22;1.60;;;20.30;74.60;;;;;;5036058;28;20011;-90
2022/06/17 08:24:47;;;;;;;4.68;1.60;;;20.40;74.30;;;;;;5052573;28;20027;-88
2022/06/17 08:27:13;;;;;;;3.38;1.48;;;20.50;73.80;;;;;;5050240;28;20471;-87
2022/06/17 08:29:39;;;;;;;5.68;1.63;;;20.60;73.60;;;;;;5034418;28;20018;-88
2022/06/17 08:34:52;;;;;;;6.03;1.30;;;20.90;72.00;;;;;;5051012;28;20072;-95
2022/06/17 08:37:17;;;;;;;3.47;1.30;;;21.00;70.80;;;;;;5053409;28;20010;-89
2022/06/17 08:39:47;;;;;;;2.80;1.33;;;21.10;70.60;;;;;;5052974;28;20080;-92
2022/06/17 08:42:55;;;;;;;5.05;1.40;;;21.20;70.20;;;;;;5029040;28;20025;-94
2022/06/17 08:45:28;;;;;;;4.20;1.40;;;21.20;69.20;;;;;;4996463;28;20128;-90
2022/06/17 08:48:13;;;;;;;5.35;1.67;;;21.30;68.70;;;;;;5030072;28;20025;-92
2022/06/17 08:51:01;;;;;;;4.20;1.73;;;21.40;68.60;;;;;;5033394;28;20021;-89
2022/06/17 08:53:35;;;;;;;5.22;1.60;;;21.50;68.40;;;;;;5032198;28;20025;-87
2022/06/17 08:56:27;;;;;;;6.25;1.65;;;21.60;68.10;;;;;;5031599;28;20014;-95
2022/06/17 08:59:23;;;;;;;6.97;1.50;;;21.80;67.30;;;;;;5052701;28;20035;-90
2022/06/17 09:02:19;;;;;;;6.03;1.33;;;21.90;65.80;;;;;;5055407;28;20049;-90
2022/06/17 09:04:47;;;;;;;3.25;1.50;;;22.00;65.30;;;;;;5028701;28;20049;-88
2022/06/17 09:07:32;;;;;;;6.15;1.40;;;22.10;64.90;;;;;;5037829;28;20034;-91
2022/06/17 09:10:08;;;;;;;4.22;1.45;;;22.30;64.10;;;;;;5055700;28;20068;-90
2022/06/17 09:12:51;;;;;;;3.10;1.80;;;22.40;64.10;;;;;;5030527;28;20057;-90
2022/06/17 09:15:25;;;;;;;2.45;1.15;;;22.50;63.50;;;;;;5054909;28;20069;-88
2022/06/17 09:18:04;;;;;;;6.05;1.65;;;22.60;63.70;;;;;;5056020;28;20026;-92
2022/06/17 09:20:36;;;;;;;2.60;1.40;;;22.70;63.10;;;;;;5030265;28;20040;-88
2022/06/17 09:23:05;;;;;;;4.13;2.00;;;22.80;62.70;;;;;;5055227;28;20096;-89
2022/06/17 09:25:45;;;;;;;3.45;1.60;;;22.90;62.50;;;;;;5038073;28;20070;-88
2022/06/17 09:28:21;;;;;;;4.00;1.60;;;23.00;62.10;;;;;;5038539;28;20028;-88
2022/06/17 09:30:54;;;;;;;3.38;1.30;;;23.10;61.50;;;;;;5031289;28;20276;-93
2022/06/17 09:33:37;;;;;;;6.10;1.48;;;23.20;61.70;;;;;;5054464;28;20030;-89
2022/06/17 09:36:22;;;;;;;5.18;1.75;;;23.40;61.50;;;;;;5030077;28;20034;-89
2022/06/17 09:39:12;;;;;;;2.22;1.02;;;23.50;61.00;;;;;;5047308;28;20037;-90
2022/06/17 09:41:42;;;;;;;5.72;1.52;;;23.70;60.50;;;;;;5037954;28;20013;-89
2022/06/17 09:44:21;;;;;;;5.10;1.50;;;23.80;59.90;;;;;;5029355;28;20391;-89
2022/06/17 09:46:57;;;;;;;1.75;1.17;;;24.00;59.70;;;;;;5038422;28;20017;-86
2022/06/17 09:49:24;;;;;;;6.05;1.27;;;24.10;59.10;;;;;;5038360;28;20048;-88
2022/06/17 09:51:56;;;;;;;3.53;1.70;;;24.20;59.30;;;;;;5038535;28;20888;-88
2022/06/17 09:54:32;;;;;;;3.53;1.35;;;24.20;59.00;;;;;;5038467;28;20025;-89
2022/06/17 09:57:10;;;;;;;3.88;1.40;;;24.50;59.40;;;;;;5038400;28;20039;-89
2022/06/17 09:59:41;;;;;;;4.50;1.50;;;24.70;59.10;;;;;;5038509;28;20025;-89
2022/06/17 10:02:31;;;;;;;3.40;1.33;;;24.80;58.50;;;;;;5040223;28;20013;-89
2022/06/17 10:05:01;;;;;;;7.95;2.00;;;25.10;58.50;;;;;;5041985;28;20005;-89
2022/06/17 10:07:50;;;;;;;5.25;1.55;;;25.40;58.30;;;;;;5058320;28;20036;-91
2022/06/17 10:10:47;;;;;;;3.90;1.73;;;25.80;58.00;;;;;;5041351;28;20097;-90
2022/06/17 10:13:22;;;;;;;8.82;1.77;;;25.90;57.40;;;;;;5031577;28;20045;-87
2022/06/17 10:19:21;;;;;;;4.15;1.52;;;26.00;57.20;;;;;;5058805;28;20044;-92
2022/06/17 10:21:56;;;;;;;4.05;1.90;;;26.10;57.40;;;;;;5039728;28;20077;-92
2022/06/17 10:24:37;;;;;;;5.43;2.20;;;26.10;57.50;;;;;;5033154;28;20041;-88
2022/06/17 10:27:29;;;;;;;3.92;1.90;;;26.10;57.50;;;;;;5058333;28;20029;-91
2022/06/17 10:30:20;;;;;;;9.55;1.83;;;26.20;57.60;;;;;;5042061;28;20097;-88
2022/06/17 10:32:51;;;;;;;4.20;1.70;;;26.30;57.80;;;;;;5040957;28;20048;-90
2022/06/17 10:35:30;;;;;;;4.47;1.98;;;26.40;57.80;;;;;;5039214;28;20036;-89
2022/06/17 10:38:24;;;;;;;6.97;2.63;;;26.50;57.70;;;;;;5040374;28;20018;-90
2022/06/17 10:40:50;;;;;;;8.70;2.05;;;26.60;57.60;;;;;;5056234;28;20021;-90
2022/06/17 10:43:23;;;;;;;2.50;1.40;;;26.70;57.40;;;;;;5040351;28;20022;-92
2022/06/17 10:45:49;;;;;;;8.73;2.10;;;26.70;57.40;;;;;;5040217;28;20047;-87
2022/06/17 10:49:15;;;;;;;3.78;2.15;;;26.90;57.20;;;;;;5056929;28;20021;-88
2022/06/17 10:51:44;;;;;;;6.75;1.67;;;27.10;57.40;;;;;;5055043;28;20029;-89
2022/06/17 10:54:26;;;;;;;6.22;1.73;;;27.30;57.00;;;;;;5057122;28;20017;-89
2022/06/17 10:57:08;;;;;;;6.78;2.13;;;27.40;56.80;;;;;;5057179;28;20010;-87
2022/06/17 10:59:41;;;;;;;4.93;1.80;;;27.50;56.70;;;;;;5037244;28;20113;-91
2022/06/17 11:02:30;;;;;;;7.13;2.00;;;27.70;56.80;;;;;;5037962;28;20025;-89
2022/06/17 11:05:06;;;;;;;9.85;2.28;;;28.10;56.70;;;;;;5040620;28;20029;-90
2022/06/17 11:07:37;;;;;;;6.63;1.90;;;28.40;56.70;;;;;;5055713;28;20044;-86
2022/06/17 11:10:05;;;;;;;7.18;1.65;;;28.30;56.50;;;;;;5031822;28;20037;-89
2022/06/17 11:12:37;;;;;;;7.22;2.08;;;28.50;56.60;;;;;;5032618;28;20052;-91
2022/06/17 11:15:22;;;;;;;9.20;2.03;;;28.40;56.10;;;;;;5039043;28;20029;-90
2022/06/17 11:17:50;;;;;;;6.80;2.33;;;28.20;56.10;;;;;;5033841;28;20010;-91
2022/06/17 11:20:16;;;;;;;8.82;2.53;;;28.00;56.20;;;;;;5031684;28;20049;-88
2022/06/17 11:22:53;;;;;;;10.98;2.30;;;27.90;56.50;;;;;;5030803;28;20080;-90
2022/06/17 11:25:31;;;;;;;8.13;2.20;;;28.00;56.80;;;;;;5038152;28;20143;-89
2022/06/17 11:28:12;;;;;;;5.35;1.77;;;27.90;56.70;;;;;;5031021;28;20104;-95
2022/06/17 11:30:52;;;;;;;10.70;2.88;;;27.80;56.80;;;;;;5020314;28;20022;-95
2022/06/17 11:33:28;;;;;;;7.78;2.15;;;27.80;57.20;;;;;;5015499;28;20045;-96
2022/06/17 11:36:13;;;;;;;7.53;2.70;;;27.80;57.30;;;;;;5016002;28;20056;-94
2022/06/17 11:38:39;;;;;;;8.43;2.08;;;27.80;57.40;;;;;;5023233;28;20021;-95
2022/06/17 11:41:05;;;;;;;7.05;2.10;;;27.80;57.30;;;;;;5019520;28;20026;-96
2022/06/17 11:43:43;;;;;;;10.35;2.10;;;27.80;57.30;;;;;;5022184;28;20091;-94
2022/06/17 11:46:18;;;;;;;11.45;2.28;;;27.90;57.50;;;;;;5033044;28;20049;-94
2022/06/17 11:49:09;;;;;;;6.95;1.90;;;27.80;57.50;;;;;;5015442;28;20030;-94
2022/06/17 11:51:38;;;;;;;7.90;2.70;;;28.00;57.70;;;;;;5017772;28;20407;-96
2022/06/17 11:54:20;;;;;;;9.00;2.37;;;28.10;57.30;;;;;;5020980;28;20071;-94
2022/06/17 11:56:48;;;;;;;7.90;2.25;;;28.30;57.20;;;;;;5024986;28;20344;-94
2022/06/17 11:59:39;;;;;;;6.93;2.63;;;28.30;57.10;;;;;;5018004;28;20021;-94
2022/06/17 12:02:07;;;;;;;10.23;2.20;;;28.50;57.10;;;;;;5015820;28;20085;-96
2022/06/17 12:04:42;;;;;;;9.32;2.35;;;28.60;57.20;;;;;;5003729;28;20033;-96
2022/06/17 12:07:46;;;;;;;10.98;2.30;;;28.70;57.30;;;;;;5023843;28;20018;-95
2022/06/17 12:10:50;;;;;;;12.57;2.30;;;28.70;57.10;;;;;;4991117;28;20398;-95
2022/06/17 12:13:41;;;;;;;9.57;2.38;;;28.80;57.00;;;;;;5043193;28;20041;-95
2022/06/17 12:16:23;;;;;;;10.32;2.22;;;28.80;57.00;;;;;;5021216;28;20113;-95
2022/06/17 12:18:55;;;;;;;8.65;2.63;;;28.90;57.00;;;;;;5019749;28;20167;-94
2022/06/17 12:22:03;;;;;;;13.65;2.78;;;28.90;56.80;;;;;;5029026;28;20033;-95
2022/06/17 12:24:44;;;;;;;7.30;2.50;;;29.10;57.10;;;;;;5015841;28;20072;-94
2022/06/17 12:27:26;;;;;;;8.63;2.10;;;29.20;57.00;;;;;;5040453;28;20069;-96
2022/06/17 12:30:05;;;;;;;4.40;1.95;;;29.40;57.00;;;;;;5016005;28;20442;-95
2022/06/17 12:32:51;;;;;;;7.85;1.98;;;29.60;56.80;;;;;;5012840;28;20038;-94
2022/06/17 12:35:30;;;;;;;6.80;2.33;;;29.80;56.20;;;;;;5032151;28;20029;-95
2022/06/17 12:38:28;;;;;;;5.57;2.28;;;30.00;56.10;;;;;;5015649;28;20033;-95
2022/06/17 12:41:07;;;;;;;6.18;2.22;;;30.20;56.20;;;;;;5020102;28;20031;-93
2022/06/17 12:44:06;;;;;;;8.90;2.17;;;30.50;55.80;;;;;;5019421;28;20061;-94
2022/06/17 12:46:56;;;;;;;7.90;2.95;;;30.80;55.10;;;;;;5027315;28;20025;-96
2022/06/17 12:55:42;;;;;;;10.10;2.47;;;31.30;54.40;;;;;;5034154;28;20133;-96
2022/06/17 12:58:37;;;;;;;8.48;2.55;;;31.50;54.50;;;;;;5022246;28;20022;-94
2022/06/17 13:01:16;;;;;;;9.50;2.28;;;31.40;54.20;;;;;;5037522;28;20478;-96
2022/06/17 13:04:22;;;;;;;9.18;2.38;;;31.30;54.20;;;;;;5038773;28;20087;-96
2022/06/17 13:07:31;;;;;;;8.02;2.22;;;31.30;54.40;;;;;;5009764;28;20059;-95
2022/06/17 13:10:41;;;;;;;10.60;2.92;;;31.40;54.20;;;;;;5024352;28;20026;-96
2022/06/17 13:13:32;;;;;;;9.60;2.75;;;31.60;54.20;;;;;;5034340;28;20121;-96
2022/06/17 13:16:15;;;;;;;11.25;2.60;;;31.60;53.90;;;;;;5023378;28;20037;-95
2022/06/17 13:18:46;;;;;;;10.82;2.83;;;31.60;53.90;;;;;;5015204;28;20467;-94
2022/06/17 13:21:24;;;;;;;8.77;3.03;;;31.70;53.90;;;;;;5012575;28;20041;-95
2022/06/17 13:24:17;;;;;;;11.27;2.40;;;31.80;54.10;;;;;;5015311;28;20383;-96
2022/06/17 13:26:55;;;;;;;8.77;2.75;;;32.00;54.10;;;;;;5025837;28;20033;-96
2022/06/17 13:29:41;;;;;;;15.25;2.95;;;32.10;53.70;;;;;;5012226;28;20014;-95
2022/06/17 13:32:22;;;;;;;13.02;3.47;;;32.10;53.20;;;;;;5030538;28;20013;-93
2022/06/17 13:35:21;;;;;;;16.58;3.67;;;31.90;53.00;;;;;;5024861;28;20037;-93
2022/06/17 13:37:55;;;;;;;14.40;3.33;;;31.90;52.90;;;;;;5031042;28;20014;-95
2022/06/17 13:40:25;;;;;;;12.25;3.10;;;31.90;53.00;;;;;;5033053;28;20026;-95
2022/06/17 13:42:53;;;;;;;16.90;3.60;;;32.00;53.20;;;;;;5033803;28;20026;-95
2022/06/17 13:45:51;;;;;;;17.35;3.88;;;32.10;52.90;;;;;;5027073;28;20022;-93